KNGP/NGP METAR and TAF weather

Enter ICAO airport designator
Station Type Date Time Source
KNGP METAR 2021/02/25 15:56 UTC NOAA

KNGP 251556Z 13009KT 6SM BR SCT012 OVC022 22/20 A3009 RMK AO2 SLP188 T02170200


Station Type Date Time Source
KNGP Decoded METAR 2021/02/25 15:56 UTC NOAA

CORPUS CHRISTI NAVAL AIR STN, TX, United States (KNGP) 27-41N 097-17W
Feb 25, 2021 - 10:56 AM EST / 2021.02.25 1556 UTC
Wind: from the SE (130 degrees) at 10 MPH (9 KT):0
Visibility: 6 mile(s):0
Sky conditions: overcast
Weather: mist
Temperature: 71.1 F (21.7 C)
Dew Point: 68.0 F (20.0 C)
Relative Humidity: 90%
Pressure (altimeter): 30.09 in. Hg (1018 hPa)
ob: KNGP 251556Z 13009KT 6SM BR SCT012 OVC022 22/20 A3009 RMK AO2 SLP188 T02170200
cycle: 16

Station Type Date Time Source
KNGP TAF 2021/02/25 15:06 UTC NOAA

TAF KNGP 2515/2615 13008KT 9000 BR VCSH FEW004 SCT014 OVC024 510052 QNH3002INS
TEMPO 2515/2517 3200 -RA BR BKN003 OVC008
BECMG 2517/2519 13016G22KT 9999 NSW FEW008 BKN018 OVC031 510072 QNH2992INS
TEMPO 2523/2601 6000 BR BKN005 OVC009
BECMG 2601/2603 15013G19KT 6000 BR BKN003 OVC006 500000 QNH2996INS
FM260500 16008KT 3200 BR OVC003 QNH2995INS
TEMPO 2608/2614 VRB05KT 0800 -DZ FG VV002 T23/2520Z T18/2612Z FN20042

Example: see airport list